createdAt,value
2022-11-08T00:01:09.554Z,15.57
2022-11-08T00:03:36.077Z,15.64
2022-11-08T00:06:21.345Z,15.62
2022-11-08T00:09:06.486Z,15.57
2022-11-08T00:11:51.380Z,15.61
2022-11-08T00:14:18.032Z,15.55
2022-11-08T00:16:44.573Z,15.53
2022-11-08T00:19:11.041Z,15.61
2022-11-08T00:21:37.519Z,15.58
2022-11-08T00:24:04.168Z,15.38
2022-11-08T00:26:30.699Z,15.57
2022-11-08T00:28:58.717Z,15.54
2022-11-08T00:31:28.123Z,15.60
2022-11-08T00:33:55.641Z,15.62
2022-11-08T00:36:22.170Z,15.56
2022-11-08T00:38:51.833Z,15.45
2022-11-08T00:41:18.340Z,15.41
2022-11-08T00:43:44.836Z,15.42
2022-11-08T00:46:11.375Z,15.39
2022-11-08T00:48:38.228Z,15.49
2022-11-08T00:51:07.122Z,15.55
2022-11-08T00:53:36.335Z,15.49
2022-11-08T00:56:05.500Z,15.40
2022-11-08T00:58:32.274Z,15.41
2022-11-08T01:00:59.537Z,15.37
2022-11-08T01:03:26.941Z,15.34
2022-11-08T01:06:05.382Z,15.40
2022-11-08T01:08:32.367Z,15.42
2022-11-08T01:11:03.422Z,15.35
2022-11-08T01:13:30.302Z,15.42
2022-11-08T01:15:57.029Z,15.35
2022-11-08T01:18:23.692Z,15.30
2022-11-08T01:20:50.889Z,15.21
2022-11-08T01:23:20.332Z,15.16
2022-11-08T01:25:48.103Z,15.17
2022-11-08T01:28:14.895Z,15.24
2022-11-08T01:30:43.453Z,15.20
2022-11-08T01:33:10.306Z,15.26
2022-11-08T01:35:37.738Z,15.36
2022-11-08T01:38:06.292Z,15.21
2022-11-08T01:40:33.346Z,15.19
2022-11-08T01:42:59.919Z,15.15
2022-11-08T01:46:13.800Z,15.10
2022-11-08T01:48:46.319Z,15.04
2022-11-08T01:51:17.553Z,15.00
2022-11-08T01:53:44.825Z,15.24
2022-11-08T01:56:13.686Z,15.14
2022-11-08T01:58:42.687Z,15.07
2022-11-08T02:01:12.962Z,15.05
2022-11-08T02:03:41.593Z,15.17
2022-11-08T02:06:08.551Z,15.15
2022-11-08T02:08:39.537Z,14.92
2022-11-08T02:11:07.713Z,15.03
2022-11-08T02:13:36.138Z,15.00
2022-11-08T02:16:02.731Z,14.96
2022-11-08T02:18:32.349Z,14.79
2022-11-08T02:21:07.576Z,14.82
2022-11-08T02:23:43.354Z,14.64
2022-11-08T02:26:09.901Z,14.71
2022-11-08T02:28:40.590Z,14.69
2022-11-08T02:31:11.239Z,14.84
2022-11-08T02:33:38.676Z,14.83
2022-11-08T02:36:06.965Z,14.81
2022-11-08T02:38:38.850Z,14.83
2022-11-08T02:41:05.476Z,14.83
2022-11-08T02:43:32.271Z,14.88
2022-11-08T02:45:59.680Z,14.80
2022-11-08T02:48:27.029Z,14.83
2022-11-08T02:50:59.649Z,14.83
2022-11-08T02:53:26.135Z,14.72
2022-11-08T02:55:52.699Z,14.69
2022-11-08T02:58:19.553Z,14.94
2022-11-08T03:00:46.264Z,14.71
2022-11-08T03:03:12.827Z,14.64
2022-11-08T03:05:40.971Z,14.76
2022-11-08T03:08:07.479Z,14.59
2022-11-08T03:10:34.131Z,14.70
2022-11-08T03:13:02.726Z,14.62
2022-11-08T03:15:30.320Z,14.75
2022-11-08T03:17:58.135Z,14.67
2022-11-08T03:20:29.575Z,14.59
2022-11-08T03:23:01.551Z,14.56
2022-11-08T03:25:28.172Z,14.66
2022-11-08T03:27:55.385Z,14.62
2022-11-08T03:30:22.425Z,14.75
2022-11-08T03:32:50.054Z,14.52
2022-11-08T03:35:17.066Z,14.49
2022-11-08T03:37:53.749Z,14.39
2022-11-08T03:40:21.297Z,14.45
2022-11-08T03:42:47.978Z,14.51
2022-11-08T03:45:15.330Z,14.53
2022-11-08T03:47:48.483Z,14.61
2022-11-08T03:50:16.332Z,14.52
2022-11-08T03:52:53.939Z,14.40
2022-11-08T03:55:23.194Z,14.47
2022-11-08T03:57:50.852Z,14.44
2022-11-08T04:00:20.650Z,14.57
2022-11-08T04:02:50.820Z,14.46
2022-11-08T04:05:17.497Z,14.40
2022-11-08T04:07:44.097Z,14.41
2022-11-08T04:10:12.297Z,14.42
2022-11-08T04:12:59.400Z,14.53
2022-11-08T04:15:27.352Z,14.59
2022-11-08T04:18:14.688Z,14.50
2022-11-08T04:21:01.709Z,14.57
2022-11-08T04:23:29.805Z,14.48
2022-11-08T04:25:58.566Z,14.43
2022-11-08T04:28:30.760Z,14.63
2022-11-08T04:30:59.812Z,14.63
2022-11-08T04:33:26.745Z,14.46
2022-11-08T04:35:58.562Z,14.56
2022-11-08T04:38:25.063Z,14.43
2022-11-08T04:40:51.525Z,14.54
2022-11-08T04:43:18.009Z,14.44
2022-11-08T04:45:44.498Z,14.42
2022-11-08T04:48:10.978Z,14.31
2022-11-08T04:50:37.530Z,14.25
2022-11-08T04:53:04.545Z,14.45
2022-11-08T04:55:31.077Z,14.39
2022-11-08T04:57:59.007Z,14.35
2022-11-08T05:00:26.391Z,14.47
2022-11-08T05:02:53.008Z,14.37
2022-11-08T05:05:19.692Z,14.43
2022-11-08T05:07:46.226Z,14.35
2022-11-08T05:10:13.049Z,14.43
2022-11-08T05:12:39.604Z,14.55
2022-11-08T05:15:06.899Z,14.33
2022-11-08T05:17:33.408Z,14.42
2022-11-08T05:20:18.593Z,14.40
2022-11-08T05:23:08.186Z,14.54
2022-11-08T05:25:42.008Z,14.57
2022-11-08T05:28:12.517Z,14.41
2022-11-08T05:30:38.980Z,14.47
2022-11-08T05:33:05.467Z,14.52
2022-11-08T05:35:33.913Z,14.50
2022-11-08T05:38:00.552Z,14.39
2022-11-08T05:40:30.700Z,14.39
2022-11-08T05:42:59.924Z,14.55
2022-11-08T05:45:26.878Z,14.19
2022-11-08T05:48:03.747Z,14.39
2022-11-08T05:50:32.749Z,14.49
2022-11-08T05:52:59.493Z,14.40
2022-11-08T05:55:26.585Z,14.39
2022-11-08T05:57:56.127Z,14.39
2022-11-08T06:00:22.835Z,14.50
2022-11-08T06:02:49.373Z,14.29
2022-11-08T06:05:15.869Z,14.40
2022-11-08T06:07:42.411Z,14.51
2022-11-08T06:10:09.286Z,14.42
2022-11-08T06:12:35.864Z,14.40
2022-11-08T06:15:02.556Z,14.43
2022-11-08T06:17:30.218Z,14.43
2022-11-08T06:19:57.021Z,14.30
2022-11-08T06:22:23.540Z,14.35
2022-11-08T06:24:50.066Z,14.27
2022-11-08T06:27:16.784Z,14.29
2022-11-08T06:29:43.392Z,14.24
2022-11-08T06:32:10.788Z,14.25
2022-11-08T06:34:37.757Z,14.39
2022-11-08T06:37:05.160Z,14.84
2022-11-08T06:39:33.071Z,15.09
2022-11-08T06:42:01.186Z,14.92
2022-11-08T06:44:27.703Z,14.95
2022-11-08T06:46:55.862Z,14.96
2022-11-08T06:49:25.930Z,15.07
2022-11-08T06:51:52.918Z,15.03
2022-11-08T06:54:23.190Z,15.10
2022-11-08T06:56:55.642Z,15.17
2022-11-08T06:59:23.286Z,15.20
2022-11-08T07:01:50.042Z,15.14
2022-11-08T07:04:16.694Z,14.99
2022-11-08T07:06:43.254Z,14.99
2022-11-08T07:09:09.852Z,15.02
2022-11-08T07:11:36.527Z,15.12
2022-11-08T07:14:02.975Z,15.09
2022-11-08T07:16:29.707Z,15.08
2022-11-08T07:18:56.419Z,15.05
2022-11-08T07:21:23.529Z,15.10
2022-11-08T07:23:50.036Z,15.10
2022-11-08T07:26:16.564Z,15.09
2022-11-08T07:28:43.063Z,15.09
2022-11-08T07:31:11.007Z,15.14
2022-11-08T07:33:37.516Z,15.12
2022-11-08T07:36:04.450Z,15.17
2022-11-08T07:38:31.264Z,15.17
2022-11-08T07:41:04.676Z,15.27
2022-11-08T07:43:31.396Z,15.33
2022-11-08T07:46:00.887Z,15.34
2022-11-08T07:48:29.109Z,15.40
2022-11-08T07:50:56.029Z,15.43
2022-11-08T07:53:22.953Z,15.56
2022-11-08T07:55:49.535Z,15.59
2022-11-08T07:58:17.190Z,15.64
2022-11-08T08:00:45.093Z,15.58
2022-11-08T08:03:14.239Z,15.55
2022-11-08T08:05:43.422Z,15.63
2022-11-08T08:08:12.475Z,15.71
2022-11-08T08:10:39.932Z,15.77
2022-11-08T08:13:06.566Z,15.91
2022-11-08T08:15:33.108Z,15.91
2022-11-08T08:18:01.710Z,15.91
2022-11-08T08:20:29.202Z,15.89
2022-11-08T08:22:55.707Z,15.84
2022-11-08T08:25:22.360Z,15.90
2022-11-08T08:27:54.284Z,15.76
2022-11-08T08:30:21.098Z,15.83
2022-11-08T08:33:08.200Z,15.93
2022-11-08T08:35:38.486Z,15.82
2022-11-08T08:38:06.703Z,15.86
2022-11-08T08:40:33.819Z,15.84
2022-11-08T08:43:03.365Z,15.84
2022-11-08T08:45:31.370Z,15.85
2022-11-08T08:47:58.624Z,15.92
2022-11-08T08:50:27.149Z,15.84
2022-11-08T08:53:01.187Z,15.81
2022-11-08T08:55:28.064Z,15.78
2022-11-08T08:57:54.810Z,15.76
2022-11-08T09:03:10.369Z,15.80
2022-11-08T09:05:37.351Z,15.82
2022-11-08T09:08:04.184Z,15.74
2022-11-08T09:10:30.876Z,15.80
2022-11-08T09:12:57.353Z,15.82
2022-11-08T09:15:23.977Z,15.87
2022-11-08T09:17:59.442Z,15.72
2022-11-08T09:20:26.128Z,15.74
2022-11-08T09:22:52.793Z,15.85
2022-11-08T09:25:19.351Z,15.77
2022-11-08T09:27:45.989Z,15.79
2022-11-08T09:30:12.730Z,15.80
2022-11-08T09:35:28.254Z,15.78
2022-11-08T09:37:55.188Z,15.89
2022-11-08T09:40:27.654Z,15.84
2022-11-08T09:42:57.135Z,15.91
2022-11-08T09:45:46.548Z,15.95
2022-11-08T09:48:25.357Z,15.96
2022-11-08T09:50:54.474Z,16.06
2022-11-08T09:53:45.243Z,15.95
2022-11-08T09:56:30.876Z,15.93
2022-11-08T09:59:43.218Z,15.94
2022-11-08T10:02:18.183Z,15.96
2022-11-08T10:04:50.048Z,16.02
2022-11-08T10:07:28.720Z,16.02
2022-11-08T10:10:17.102Z,15.93
2022-11-08T10:12:55.715Z,15.99
2022-11-08T10:15:31.374Z,16.00
2022-11-08T10:18:15.002Z,16.03
2022-11-08T10:21:11.187Z,15.97
2022-11-08T10:23:44.698Z,16.02
2022-11-08T10:26:24.170Z,16.03
2022-11-08T10:29:01.951Z,16.01
2022-11-08T10:31:33.602Z,16.09
2022-11-08T10:34:02.218Z,16.10
2022-11-08T10:36:38.272Z,16.05
2022-11-08T10:39:08.851Z,16.12
2022-11-08T10:41:43.285Z,16.07
2022-11-08T10:44:16.419Z,16.08
2022-11-08T10:46:56.714Z,16.14
2022-11-08T10:49:58.272Z,16.07
2022-11-08T10:52:42.408Z,16.10
2022-11-08T10:55:23.950Z,16.16
2022-11-08T10:57:50.402Z,16.19
2022-11-08T11:00:19.865Z,16.15
2022-11-08T11:02:54.622Z,16.13
2022-11-08T11:05:28.193Z,16.13
2022-11-08T11:08:24.935Z,16.20
2022-11-08T11:10:51.579Z,16.13
2022-11-08T11:15:57.424Z,16.17
2022-11-08T11:18:36.977Z,16.18
2022-11-08T11:21:08.797Z,16.23
2022-11-08T11:23:53.785Z,16.27
2022-11-08T11:26:27.833Z,16.16
2022-11-08T11:29:09.312Z,16.16
2022-11-08T11:31:41.843Z,16.19
2022-11-08T11:34:17.435Z,16.15
2022-11-08T11:36:47.735Z,16.15
2022-11-08T11:39:23.027Z,16.19
2022-11-08T11:42:30.968Z,16.23
2022-11-08T11:45:22.712Z,16.24
2022-11-08T11:47:55.825Z,16.23
2022-11-08T11:50:35.051Z,16.24
2022-11-08T11:53:06.252Z,16.25
2022-11-08T11:55:54.278Z,16.36
2022-11-08T11:58:57.340Z,16.39
2022-11-08T12:01:58.032Z,16.44
2022-11-08T12:04:43.619Z,16.50
2022-11-08T12:07:21.934Z,16.50
2022-11-08T12:10:18.212Z,16.57
2022-11-08T12:13:03.879Z,16.57
2022-11-08T12:15:54.336Z,16.62
2022-11-08T12:18:43.944Z,16.58
2022-11-08T12:21:15.308Z,16.64
2022-11-08T12:23:54.256Z,16.68
2022-11-08T12:26:27.344Z,16.62
2022-11-08T12:28:56.858Z,16.67
2022-11-08T12:31:35.672Z,16.63
2022-11-08T12:35:13.161Z,16.60
2022-11-08T12:38:13.596Z,16.67
2022-11-08T12:41:12.089Z,16.65
2022-11-08T12:44:18.647Z,16.58
2022-11-08T12:47:04.294Z,16.63
2022-11-08T12:49:43.086Z,16.64
2022-11-08T12:52:27.139Z,16.62
2022-11-08T12:55:05.020Z,16.66
2022-11-08T12:57:32.233Z,16.65
2022-11-08T13:00:06.630Z,16.64
2022-11-08T13:02:39.105Z,16.70
2022-11-08T13:05:18.850Z,16.66
2022-11-08T13:08:11.667Z,16.72
2022-11-08T13:10:56.392Z,16.72
2022-11-08T13:13:44.473Z,16.66
2022-11-08T13:16:15.434Z,16.62
2022-11-08T13:18:50.886Z,16.67
2022-11-08T13:21:38.209Z,16.58
2022-11-08T13:24:14.062Z,16.61
2022-11-08T13:26:53.742Z,16.65
2022-11-08T13:29:25.763Z,16.72
2022-11-08T13:32:03.107Z,16.69
2022-11-08T13:34:29.820Z,16.64
2022-11-08T13:36:59.374Z,16.65
2022-11-08T13:40:04.987Z,16.63
2022-11-08T13:42:39.812Z,16.64
2022-11-08T13:45:24.170Z,16.68
2022-11-08T13:47:54.342Z,16.69
2022-11-08T13:50:31.407Z,16.74
2022-11-08T13:53:20.781Z,16.72
2022-11-08T13:55:49.024Z,16.72
2022-11-08T13:58:38.794Z,16.78
2022-11-08T14:01:38.462Z,16.78
2022-11-08T14:04:33.751Z,16.76
2022-11-08T14:07:26.617Z,16.69
2022-11-08T14:10:01.332Z,16.68
2022-11-08T14:12:33.865Z,16.66
2022-11-08T14:15:10.371Z,16.62
2022-11-08T14:17:44.845Z,16.63
2022-11-08T14:20:22.829Z,16.58
2022-11-08T14:22:50.547Z,16.59
2022-11-08T14:25:35.415Z,16.59
2022-11-08T14:28:02.959Z,16.62
2022-11-08T14:30:29.492Z,16.59
2022-11-08T14:33:26.657Z,16.62
2022-11-08T14:36:03.341Z,16.60
2022-11-08T14:38:32.817Z,16.62
2022-11-08T14:41:02.839Z,16.62
2022-11-08T14:43:30.088Z,16.65
2022-11-08T14:46:00.186Z,16.62
2022-11-08T14:48:30.815Z,16.59
2022-11-08T14:51:05.713Z,16.56
2022-11-08T14:53:34.534Z,16.56
2022-11-08T14:56:19.800Z,16.63
2022-11-08T14:58:51.153Z,16.61
2022-11-08T15:01:22.946Z,16.52
2022-11-08T15:04:02.254Z,16.51
2022-11-08T15:06:43.911Z,16.47
2022-11-08T15:09:36.907Z,16.48
2022-11-08T15:12:06.705Z,16.48
2022-11-08T15:14:36.613Z,16.50
2022-11-08T15:17:03.734Z,16.49
2022-11-08T15:19:35.832Z,16.50
2022-11-08T15:22:26.847Z,16.53
2022-11-08T15:25:19.127Z,16.48
2022-11-08T15:27:46.568Z,16.54
2022-11-08T15:30:21.223Z,16.56
2022-11-08T15:32:48.925Z,16.56
2022-11-08T15:35:20.896Z,16.52
2022-11-08T15:37:49.254Z,16.55
2022-11-08T15:40:20.851Z,16.57
2022-11-08T15:42:50.512Z,16.53
2022-11-08T15:45:16.939Z,16.57
2022-11-08T15:47:43.378Z,16.55
2022-11-08T15:50:17.037Z,16.47
2022-11-08T15:52:44.882Z,16.46
2022-11-08T15:55:17.205Z,16.41
2022-11-08T15:57:45.488Z,16.38
2022-11-08T16:00:22.360Z,16.26
2022-11-08T16:02:52.959Z,16.43
2022-11-08T16:05:21.784Z,16.45
2022-11-08T16:07:51.529Z,16.45
2022-11-08T16:10:31.602Z,16.42
2022-11-08T16:13:01.054Z,16.41
2022-11-08T16:15:33.838Z,16.34
2022-11-08T16:18:01.963Z,16.28
2022-11-08T16:20:33.389Z,16.23
2022-11-08T16:23:02.406Z,16.24
2022-11-08T16:25:33.325Z,16.25
2022-11-08T16:28:08.731Z,16.28
2022-11-08T16:30:35.733Z,16.29
2022-11-08T16:33:16.295Z,16.31
2022-11-08T16:35:42.852Z,16.29
2022-11-08T16:38:10.775Z,16.24
2022-11-08T16:40:37.269Z,16.21
2022-11-08T16:43:03.931Z,16.24
2022-11-08T16:46:03.061Z,16.17
2022-11-08T16:48:24.365Z,16.23
2022-11-08T16:50:51.474Z,16.19
2022-11-08T16:53:21.962Z,16.18
2022-11-08T16:55:51.604Z,16.23
2022-11-08T16:58:18.485Z,16.19
2022-11-08T17:00:45.866Z,16.22
2022-11-08T17:03:24.346Z,16.19
2022-11-08T17:05:53.936Z,16.21
2022-11-08T17:08:21.298Z,16.19
2022-11-08T17:10:48.143Z,16.19
2022-11-08T17:13:16.335Z,16.22
2022-11-08T17:15:43.805Z,16.18
2022-11-08T17:18:12.510Z,16.21
2022-11-08T17:20:45.686Z,16.26
2022-11-08T17:23:14.578Z,16.19
2022-11-08T17:25:47.846Z,16.29
2022-11-08T17:28:14.399Z,16.28
2022-11-08T17:30:44.328Z,16.26
2022-11-08T17:33:12.843Z,16.26
2022-11-08T17:35:42.791Z,16.24
2022-11-08T17:38:10.988Z,16.22
2022-11-08T17:40:37.474Z,16.18
2022-11-08T17:43:03.953Z,16.18
2022-11-08T17:45:30.749Z,16.23
2022-11-08T17:47:57.269Z,16.24
2022-11-08T17:50:23.795Z,16.29
2022-11-08T17:52:56.414Z,16.29
2022-11-08T17:55:22.897Z,16.24
2022-11-08T17:57:49.377Z,16.30
2022-11-08T18:00:16.594Z,16.28
2022-11-08T18:02:43.438Z,16.27
2022-11-08T18:05:10.193Z,16.25
2022-11-08T18:07:39.175Z,16.24
2022-11-08T18:10:07.227Z,16.16
2022-11-08T18:12:34.176Z,16.31
2022-11-08T18:15:03.496Z,16.27
2022-11-08T18:17:30.736Z,16.33
2022-11-08T18:19:57.459Z,16.37
2022-11-08T18:22:24.200Z,16.39
2022-11-08T18:24:50.800Z,16.29
2022-11-08T18:27:20.558Z,16.21
2022-11-08T18:29:48.455Z,16.16
2022-11-08T18:32:15.077Z,16.19
2022-11-08T18:34:41.701Z,16.19
2022-11-08T18:37:08.353Z,16.13
2022-11-08T18:39:34.912Z,16.14
2022-11-08T18:42:03.281Z,16.16
2022-11-08T18:44:30.402Z,16.19
2022-11-08T18:46:58.697Z,16.20
2022-11-08T18:49:25.405Z,16.17
2022-11-08T18:51:54.858Z,16.12
2022-11-08T18:54:22.778Z,16.12
2022-11-08T18:56:49.325Z,16.08
2022-11-08T18:59:15.963Z,16.11
2022-11-08T19:01:43.676Z,16.12
2022-11-08T19:04:10.240Z,16.12
2022-11-08T19:06:37.090Z,16.11
2022-11-08T19:09:05.260Z,16.09
2022-11-08T19:11:33.883Z,16.02
2022-11-08T19:14:02.019Z,16.06
2022-11-08T19:16:28.598Z,16.02
2022-11-08T19:18:57.126Z,16.07
2022-11-08T19:21:27.094Z,16.06
2022-11-08T19:23:59.017Z,16.04
2022-11-08T19:26:27.248Z,16.04
2022-11-08T19:29:01.555Z,16.06
2022-11-08T19:31:28.160Z,15.99
2022-11-08T19:33:55.520Z,15.98
2022-11-08T19:36:27.307Z,15.96
2022-11-08T19:38:58.183Z,15.96
2022-11-08T19:41:27.130Z,16.02
2022-11-08T19:43:57.109Z,15.99
2022-11-08T19:46:26.982Z,15.95
2022-11-08T19:49:02.707Z,15.98
2022-11-08T19:51:31.124Z,15.94
2022-11-08T19:53:59.641Z,15.95
2022-11-08T19:56:50.040Z,15.95
2022-11-08T19:59:14.826Z,15.88
2022-11-08T20:01:43.705Z,15.92
2022-11-08T20:04:11.551Z,15.93
2022-11-08T20:06:38.740Z,16.01
2022-11-08T20:09:06.460Z,16.00
2022-11-08T20:11:36.858Z,16.05
2022-11-08T20:14:05.142Z,16.04
2022-11-08T20:16:38.100Z,16.03
2022-11-08T20:19:13.444Z,16.03
2022-11-08T20:21:42.173Z,15.95
2022-11-08T20:24:10.815Z,15.76
2022-11-08T20:26:41.266Z,15.59
2022-11-08T20:29:08.653Z,15.70
2022-11-08T20:31:35.551Z,15.56
2022-11-08T20:34:05.902Z,15.64
2022-11-08T20:36:35.409Z,15.69
2022-11-08T20:39:06.797Z,15.62
2022-11-08T20:41:35.787Z,15.73
2022-11-08T20:44:03.278Z,15.73
2022-11-08T20:46:30.146Z,15.69
2022-11-08T20:49:00.643Z,15.67
2022-11-08T20:51:28.852Z,15.69
2022-11-08T20:53:56.763Z,15.71
2022-11-08T20:56:25.600Z,15.68
2022-11-08T20:58:56.106Z,15.73
2022-11-08T21:01:25.850Z,15.65
2022-11-08T21:03:52.879Z,15.72
2022-11-08T21:06:25.239Z,15.74
2022-11-08T21:08:59.846Z,15.74
2022-11-08T21:11:32.377Z,15.71
2022-11-08T21:13:58.954Z,15.75
2022-11-08T21:16:38.146Z,15.71
2022-11-08T21:19:09.133Z,15.75
2022-11-08T21:21:35.773Z,15.71
2022-11-08T21:24:02.311Z,15.70
2022-11-08T21:26:28.852Z,15.74
2022-11-08T21:28:55.482Z,15.64
2022-11-08T21:31:22.030Z,15.66
2022-11-08T21:33:54.853Z,15.58
2022-11-08T21:36:23.275Z,15.62
2022-11-08T21:38:49.751Z,15.63
2022-11-08T21:41:16.268Z,15.57
2022-11-08T21:43:44.186Z,15.59
2022-11-08T21:46:25.481Z,15.59
2022-11-08T21:48:57.254Z,15.55
2022-11-08T21:51:24.269Z,15.61
2022-11-08T21:53:55.865Z,15.57
2022-11-08T21:56:29.583Z,15.51
2022-11-08T21:58:56.312Z,15.10
2022-11-08T22:01:28.588Z,14.97
2022-11-08T22:03:57.159Z,15.04
